ADDS METAR Data INFO
IDs: Format: Raw Decoded Include TAF

Data at: 0428 UTC 22 Sep 2017

K82V 220415Z AUTO 12010KT 10SM CLR 17/00 A2967 RMK AO2
K82V 220355Z AUTO 00000KT 10SM CLR 13/02 A2968 RMK AO2 PWINO
K82V 220335Z AUTO 09003KT 10SM CLR 16/02 A2968 RMK AO2 PWINO
K82V 220315Z AUTO 11005KT 10SM CLR 17/02 A2969 RMK AO2
K82V 220255Z AUTO 10008KT 10SM CLR 18/01 A2969 RMK AO2
K82V 220235Z AUTO 10006KT 10SM CLR 19/01 A2969 RMK AO2
K82V 220215Z AUTO 10009G15KT 10SM CLR 20/00 A2969 RMK AO2 PWINO
K82V 220155Z AUTO 10011G16KT 10SM CLR 22/00 A2969 RMK AO2 PWINO
K82V 220135Z AUTO 11011KT 10SM CLR 22/M01 A2969 RMK AO2 PWINO
K82V 220115Z AUTO 12007KT 10SM CLR 22/M02 A2969 RMK AO2 PWINO
K82V 220055Z AUTO 12004KT 10SM CLR 23/M04 A2969 RMK AO2 PWINO
K82V 220035Z AUTO 11004KT 10SM CLR 25/M04 A2969 RMK AO2
K82V 220015Z AUTO 11005KT 10SM CLR 27/M04 A2969 RMK AO2
K82V 212355Z AUTO 13007KT 10SM CLR 28/M06 A2969 RMK AO2
K82V 212335Z AUTO 13009KT 10SM CLR 29/M06 A2969 RMK AO2
K82V 212315Z AUTO 12008KT 10SM CLR 29/M06 A2971 RMK AO2
K82V 212255Z AUTO 14007G15KT 10SM CLR 30/M07 A2971 RMK AO2
K82V 212235Z AUTO 18010G14KT 10SM CLR 30/M07 A2971 RMK AO2
K82V 212215Z AUTO 18008KT 161V221 10SM CLR 30/M07 A2971 RMK AO2
K82V 212155Z AUTO 21008G14KT 10SM CLR 30/M05 A2972 RMK AO2
K82V 212135Z AUTO 15011G15KT 131V191 10SM CLR 30/M06 A2972 RMK AO2
K82V 212115Z AUTO 14009G18KT 10SM CLR 30/M06 A2973 RMK AO2
K82V 212055Z AUTO 17012KT 10SM CLR 30/M05 A2974 RMK AO2
K82V 212035Z AUTO 17008G19KT 10SM CLR 30/M05 A2974 RMK AO2
K82V 212015Z AUTO 15008G17KT 10SM CLR 29/M05 A2975 RMK AO2
K82V 211955Z AUTO 20005KT 10SM CLR 29/M05 A2975 RMK AO2
K82V 211935Z AUTO 19009KT 161V221 10SM CLR 29/M06 A2976 RMK AO2
K82V 211915Z AUTO 21005KT 10SM CLR 28/M04 A2976 RMK AO2
K82V 211855Z AUTO 16006KT 10SM CLR 28/M03 A2976 RMK AO2
K82V 211835Z AUTO 20009KT 10SM CLR 27/M04 A2977 RMK AO2
K82V 211815Z AUTO 20009G14KT 10SM CLR 27/M02 A2977 RMK AO2
K82V 211755Z AUTO 20009KT 10SM CLR 26/M02 A2977 RMK AO2
K82V 211735Z AUTO 21010G16KT 10SM CLR 26/M01 A2978 RMK AO2
K82V 211715Z AUTO 18011G15KT 10SM CLR 25/00 A2978 RMK AO2
K82V 211655Z AUTO 23006KT 10SM CLR 23/00 A2979 RMK AO2
K82V 211635Z AUTO 20007KT 10SM CLR 22/02 A2979 RMK AO2
K82V 211615Z AUTO 20004KT 10SM CLR 20/02 A2980 RMK AO2
K82V 211555Z AUTO 00000KT 10SM CLR 18/02 A2980 RMK AO2
K82V 211535Z AUTO 18004KT 10SM CLR 17/02 A2980 RMK AO2
K82V 211515Z AUTO 23003KT 10SM CLR 15/03 A2980 RMK AO2
K82V 211455Z AUTO 00000KT 10SM CLR 11/03 A2980 RMK AO2
K82V 211435Z AUTO 00000KT 10SM CLR 10/02 A2980 RMK AO2
K82V 211415Z AUTO 00000KT 10SM CLR 08/02 A2980 RMK AO2
K82V 211355Z AUTO 10SM CLR 05/01 A2980 RMK AO2
K82V 211335Z AUTO 10SM CLR 02/00 A2980 RMK AO2
K82V 211315Z AUTO 10SM CLR 02/00 A2980 RMK AO2
K82V 211255Z AUTO 10SM CLR 02/00 A2980 RMK AO2
K82V 211235Z AUTO 10SM CLR 02/00 A2980 RMK AO2
K82V 211215Z AUTO 7SM CLR 03/00 A2979 RMK AO2
K82V 211155Z AUTO 10SM CLR 02/00 A2979 RMK AO2
K82V 211135Z AUTO 10SM CLR 02/00 A2980 RMK AO2
K82V 211115Z AUTO 10SM CLR 02/00 A2980 RMK AO2
K82V 211055Z AUTO 10SM CLR 02/00 A2979 RMK AO2
K82V 211035Z AUTO 10SM CLR 03/00 A2979 RMK AO2
K82V 211015Z AUTO 10SM CLR 02/00 A2980 RMK AO2
K82V 210955Z AUTO 10SM CLR 05/00 A2981 RMK AO2
K82V 210935Z AUTO 10SM CLR 05/00 A2981 RMK AO2
K82V 210915Z AUTO 10SM CLR 07/00 A2981 RMK AO2
K82V 210855Z AUTO 26003KT 10SM CLR 08/00 A2982 RMK AO2
K82V 210835Z AUTO 21004KT 10SM CLR 11/00 A2982 RMK AO2
K82V 210815Z AUTO 16003KT 10SM CLR 11/00 A2983 RMK AO2
K82V 210755Z AUTO 16009KT 10SM CLR 12/00 A2983 RMK AO2 PWINO
K82V 210735Z AUTO 17007KT 10SM CLR 12/00 A2983 RMK AO2 PWINO
K82V 210715Z AUTO 15012G19KT 10SM CLR 13/00 A2983 RMK AO2
K82V 210655Z AUTO 15016G19KT 10SM CLR 13/00 A2983 RMK AO2
K82V 210635Z AUTO 15016G21KT 10SM CLR 13/M01 A2984 RMK AO2
K82V 210615Z AUTO 15017G21KT 10SM CLR 14/M01 A2984 RMK AO2
K82V 210555Z AUTO 15017G23KT 10SM CLR 15/M01 A2985 RMK AO2
K82V 210535Z AUTO 15019G26KT 10SM CLR 15/M01 A2985 RMK AO2
K82V 210515Z AUTO 16018G25KT 10SM CLR 15/M01 A2986 RMK AO2
K82V 210455Z AUTO 16020G27KT 10SM CLR 16/M01 A2986 RMK AO2
K82V 210435Z AUTO 16017G31KT 10SM CLR 16/M01 A2986 RMK AO2
K82V 210415Z AUTO 16020G25KT 10SM CLR 16/M01 A2987 RMK AO2
K82V 210355Z AUTO 15016G24KT 10SM CLR 16/M02 A2987 RMK AO2
K82V 210335Z AUTO 15010G16KT 10SM CLR 15/M02 A2988 RMK AO2
K82V 210315Z AUTO 15012G17KT 10SM CLR 15/M02 A2989 RMK AO2
K82V 210255Z AUTO 15010KT 10SM CLR 15/M02 A2989 RMK AO2
K82V 210235Z AUTO 14008KT 10SM CLR 15/M02 A2988 RMK AO2
K82V 210215Z AUTO 14005KT 10SM CLR 15/M02 A2988 RMK AO2
K82V 210155Z AUTO 14007KT 10SM CLR 15/M02 A2987 RMK AO2
K82V 210135Z AUTO 14006KT 10SM CLR 16/M02 A2987 RMK AO2
K82V 210115Z AUTO 15005KT 10SM CLR 17/M02 A2986 RMK AO2 PWINO
K82V 210055Z AUTO 15009KT 10SM CLR 19/M03 A2986 RMK AO2 PWINO
K82V 210035Z AUTO 16011G15KT 10SM CLR 20/M03 A2986 RMK AO2 PWINO
K82V 210015Z AUTO 17012KT 10SM CLR 21/M03 A2987 RMK AO2
K82V 202355Z AUTO 16012G19KT 10SM CLR 22/M03 A2986 RMK AO2
K82V 202335Z AUTO 16015G22KT 10SM CLR 22/M03 A2986 RMK AO2
K82V 202315Z AUTO 17015G22KT 10SM CLR 22/M03 A2986 RMK AO2
K82V 202255Z AUTO 17015G22KT 10SM CLR 22/M03 A2986 RMK AO2
K82V 202235Z AUTO 16016G21KT 10SM CLR 22/M03 A2986 RMK AO2
K82V 202215Z AUTO 17017G24KT 10SM CLR 22/M03 A2986 RMK AO2
K82V 202155Z AUTO 16016KT 10SM CLR 22/M02 A2987 RMK AO2
K82V 202135Z AUTO 17018G22KT 10SM CLR 22/M02 A2988 RMK AO2
K82V 202115Z AUTO 16016G23KT 10SM CLR 22/M02 A2989 RMK AO2
K82V 202055Z AUTO 19015G23KT 10SM CLR 21/M02 A2989 RMK AO2
K82V 202035Z AUTO 18013G22KT 10SM CLR 21/M02 A2990 RMK AO2
K82V 202015Z AUTO 18016G22KT 10SM CLR 20/M01 A2991 RMK AO2
K82V 201955Z AUTO 18015G22KT 10SM CLR 20/M01 A2993 RMK AO2
K82V 201935Z AUTO 19016G23KT 10SM CLR 19/M01 A2994 RMK AO2
K82V 201915Z AUTO 17014G20KT 10SM CLR 18/M01 A2995 RMK AO2
K82V 201855Z AUTO 19015G20KT 10SM CLR 18/00 A2996 RMK AO2
K82V 201835Z AUTO 18015G23KT 10SM CLR 17/00 A2997 RMK AO2
K82V 201815Z AUTO 18016G21KT 10SM CLR 17/00 A2997 RMK AO2
K82V 201755Z AUTO 19015G18KT 10SM CLR 16/00 A2997 RMK AO2
K82V 201735Z AUTO 19011G17KT 10SM CLR 16/00 A2998 RMK AO2
K82V 201715Z AUTO 22011G18KT 10SM CLR 15/00 A2998 RMK AO2
K82V 201655Z AUTO 22010G16KT 10SM CLR 15/00 A3000 RMK AO2
K82V 201635Z AUTO 23010G16KT 10SM SCT090 14/00 A3000 RMK AO2